createdAt,value
2022-10-06T00:00:25.141Z,1.20
2022-10-06T00:05:33.189Z,1.40
2022-10-06T00:10:40.751Z,1.50
2022-10-06T00:15:48.259Z,1.40
2022-10-06T00:20:58.705Z,1.40
2022-10-06T00:26:06.803Z,1.40
2022-10-06T00:31:14.336Z,1.50
2022-10-06T00:36:22.168Z,1.87
2022-10-06T00:41:29.517Z,1.70
2022-10-06T00:46:39.756Z,1.60
2022-10-06T00:51:51.116Z,1.60
2022-10-06T00:56:59.789Z,1.70
2022-10-06T01:02:10.273Z,1.60
2022-10-06T01:07:20.219Z,1.60
2022-10-06T01:12:31.115Z,1.63
2022-10-06T01:17:41.600Z,1.60
2022-10-06T01:22:51.751Z,1.33
2022-10-06T01:28:00.065Z,1.60
2022-10-06T01:33:07.865Z,1.57
2022-10-06T01:38:15.931Z,1.83
2022-10-06T01:43:23.805Z,1.97
2022-10-06T01:48:31.901Z,1.50
2022-10-06T01:53:40.659Z,1.60
2022-10-06T01:58:48.902Z,1.77
2022-10-06T02:03:56.315Z,1.80
2022-10-06T02:09:05.709Z,1.60
2022-10-06T02:14:13.547Z,1.60
2022-10-06T02:19:20.985Z,1.60
2022-10-06T02:24:28.886Z,1.90
2022-10-06T02:29:36.778Z,1.80
2022-10-06T02:34:44.922Z,1.90
2022-10-06T02:39:53.873Z,1.70
2022-10-06T02:45:02.615Z,2.10
2022-10-06T02:50:10.653Z,1.80
2022-10-06T02:55:18.478Z,2.03
2022-10-06T03:00:27.511Z,2.33
2022-10-06T03:05:34.598Z,2.07
2022-10-06T03:10:41.987Z,1.80
2022-10-06T03:15:49.757Z,1.90
2022-10-06T03:21:00.093Z,2.20
2022-10-06T03:26:08.792Z,2.00
2022-10-06T03:31:18.129Z,2.10
2022-10-06T03:36:29.652Z,2.23
2022-10-06T03:41:39.307Z,2.10
2022-10-06T03:46:48.545Z,2.30
2022-10-06T03:51:55.863Z,2.47
2022-10-06T03:57:04.898Z,2.47
2022-10-06T04:02:12.405Z,2.37
2022-10-06T04:07:20.001Z,2.23
2022-10-06T04:12:27.151Z,2.40
2022-10-06T04:17:34.527Z,2.20
2022-10-06T04:22:42.008Z,2.57
2022-10-06T04:27:49.249Z,2.90
2022-10-06T04:32:58.225Z,2.40
2022-10-06T04:38:05.655Z,2.40
2022-10-06T04:43:13.927Z,2.33
2022-10-06T04:48:21.392Z,2.40
2022-10-06T04:53:29.802Z,2.33
2022-10-06T04:58:40.658Z,2.47
2022-10-06T05:03:51.823Z,2.33
2022-10-06T05:09:03.235Z,2.20
2022-10-06T05:14:12.299Z,2.70
2022-10-06T05:19:21.062Z,2.30
2022-10-06T05:24:28.353Z,2.20
2022-10-06T05:29:36.631Z,2.20
2022-10-06T05:34:45.449Z,2.10
2022-10-06T05:39:53.226Z,2.40
2022-10-06T05:45:02.683Z,2.60
2022-10-06T05:50:10.621Z,2.20
2022-10-06T05:55:17.915Z,2.30
2022-10-06T06:00:25.619Z,1.97
2022-10-06T06:05:35.185Z,2.10
2022-10-06T06:10:43.089Z,2.10
2022-10-06T06:15:52.051Z,2.13
2022-10-06T06:21:01.864Z,2.20
2022-10-06T06:26:13.016Z,1.93
2022-10-06T06:31:26.611Z,2.23
2022-10-06T06:36:37.667Z,1.90
2022-10-06T06:41:49.393Z,1.80
2022-10-06T06:46:59.752Z,1.80
2022-10-06T06:52:07.146Z,1.90
2022-10-06T06:57:15.785Z,1.80
2022-10-06T07:02:25.544Z,1.70
2022-10-06T07:07:33.090Z,1.80
2022-10-06T07:12:40.805Z,1.90
2022-10-06T07:17:49.834Z,1.80
2022-10-06T07:22:59.247Z,1.90
2022-10-06T07:28:08.591Z,2.00
2022-10-06T07:33:18.511Z,1.80
2022-10-06T07:38:28.140Z,2.00
2022-10-06T07:43:37.549Z,2.37
2022-10-06T07:48:46.829Z,2.03
2022-10-06T07:53:54.543Z,2.10
2022-10-06T07:59:03.497Z,2.00
2022-10-06T08:04:11.305Z,2.33
2022-10-06T08:09:18.811Z,2.60
2022-10-06T08:14:26.314Z,2.40
2022-10-06T08:19:34.074Z,2.40
2022-10-06T08:25:04.231Z,2.27
2022-10-06T08:29:51.717Z,2.50
2022-10-06T08:35:02.679Z,3.60
2022-10-06T08:40:14.474Z,3.50
2022-10-06T08:45:24.961Z,3.67
2022-10-06T08:50:39.090Z,4.07
2022-10-06T08:55:50.685Z,4.03
2022-10-06T09:01:01.826Z,3.60
2022-10-06T09:06:13.485Z,4.13
2022-10-06T09:11:27.604Z,3.73
2022-10-06T09:16:39.264Z,3.73
2022-10-06T09:21:50.142Z,3.23
2022-10-06T09:27:00.863Z,3.50
2022-10-06T09:32:11.368Z,2.93
2022-10-06T09:37:19.870Z,3.30
2022-10-06T09:42:30.732Z,3.13
2022-10-06T09:47:41.358Z,3.23
2022-10-06T09:52:53.012Z,3.10
2022-10-06T09:58:01.938Z,3.10
2022-10-06T10:03:12.902Z,3.10
2022-10-06T10:08:22.873Z,3.30
2022-10-06T10:13:32.745Z,3.20
2022-10-06T10:18:43.337Z,3.13
2022-10-06T10:23:55.544Z,3.37
2022-10-06T10:29:06.556Z,2.83
2022-10-06T10:34:24.324Z,2.90
2022-10-06T10:39:30.096Z,3.03
2022-10-06T10:44:42.011Z,3.50
2022-10-06T10:49:53.035Z,3.60
2022-10-06T10:55:04.179Z,3.40
2022-10-06T11:00:15.721Z,3.63
2022-10-06T11:05:28.975Z,3.43
2022-10-06T11:10:40.446Z,3.03
2022-10-06T11:15:51.898Z,3.27
2022-10-06T11:21:03.945Z,3.57
2022-10-06T11:26:13.673Z,3.57
2022-10-06T11:31:23.922Z,3.80
2022-10-06T11:36:35.440Z,3.97
2022-10-06T11:41:46.419Z,3.90
2022-10-06T11:46:55.624Z,3.90
2022-10-06T11:52:08.467Z,4.60
2022-10-06T11:57:20.394Z,3.93
2022-10-06T12:02:31.565Z,3.70
2022-10-06T12:07:43.429Z,3.80
2022-10-06T12:13:13.959Z,4.20
2022-10-06T12:18:07.812Z,3.70
2022-10-06T12:23:19.215Z,3.87
2022-10-06T12:28:29.215Z,3.50
2022-10-06T12:33:39.997Z,3.67
2022-10-06T12:38:52.954Z,3.77
2022-10-06T12:44:02.888Z,3.67
2022-10-06T12:49:14.086Z,3.77
2022-10-06T12:54:26.653Z,3.60
2022-10-06T12:59:39.217Z,3.40
2022-10-06T13:04:50.596Z,3.50
2022-10-06T13:10:01.720Z,3.50
2022-10-06T13:15:12.541Z,3.27
2022-10-06T13:20:23.585Z,3.80
2022-10-06T13:25:34.654Z,3.13
2022-10-06T13:30:43.093Z,3.30
2022-10-06T13:35:54.300Z,3.60
2022-10-06T13:41:04.908Z,3.50
2022-10-06T13:46:16.357Z,2.93
2022-10-06T13:51:28.867Z,3.07
2022-10-06T13:56:39.620Z,3.07
2022-10-06T14:01:47.322Z,2.90
2022-10-06T14:06:57.671Z,3.03
2022-10-06T14:12:08.390Z,3.10
2022-10-06T14:17:18.781Z,3.10
2022-10-06T14:22:30.808Z,3.07
2022-10-06T14:27:39.599Z,3.13
2022-10-06T14:32:47.310Z,3.03
2022-10-06T14:37:56.187Z,2.70
2022-10-06T14:43:03.785Z,2.73
2022-10-06T14:48:14.590Z,3.00
2022-10-06T14:53:22.118Z,3.33
2022-10-06T14:58:33.586Z,3.00
2022-10-06T15:03:45.556Z,3.23
2022-10-06T15:08:52.281Z,3.40
2022-10-06T15:14:00.619Z,3.37
2022-10-06T15:19:08.189Z,3.23
2022-10-06T15:24:18.581Z,3.27
2022-10-06T15:29:26.443Z,3.73
2022-10-06T15:34:34.830Z,3.27
2022-10-06T15:39:43.508Z,3.23
2022-10-06T15:44:52.976Z,3.60
2022-10-06T15:50:01.819Z,3.33
2022-10-06T15:55:11.339Z,3.43
2022-10-06T16:00:18.926Z,3.43
2022-10-06T16:05:28.217Z,3.80
2022-10-06T16:10:35.913Z,3.60
2022-10-06T16:15:43.905Z,3.90
2022-10-06T16:20:54.783Z,3.80
2022-10-06T16:26:06.404Z,3.40
2022-10-06T16:31:14.089Z,2.80
2022-10-06T16:36:22.208Z,3.13
2022-10-06T16:41:29.782Z,3.13
2022-10-06T16:46:37.517Z,3.00
2022-10-06T16:51:46.596Z,3.30
2022-10-06T16:56:55.992Z,3.10
2022-10-06T17:02:03.700Z,3.00
2022-10-06T17:07:11.386Z,3.30
2022-10-06T17:12:18.992Z,3.10
2022-10-06T17:17:26.479Z,3.00
2022-10-06T17:22:33.809Z,3.30
2022-10-06T17:27:42.177Z,3.23
2022-10-06T17:32:49.375Z,3.40
2022-10-06T17:37:56.972Z,3.17
2022-10-06T17:43:05.813Z,3.37
2022-10-06T17:48:14.343Z,3.37
2022-10-06T17:53:21.559Z,3.27
2022-10-06T17:58:30.036Z,3.33
2022-10-06T18:03:39.094Z,3.57
2022-10-06T18:08:49.380Z,3.30
2022-10-06T18:13:57.337Z,3.60
2022-10-06T18:19:08.269Z,3.20
2022-10-06T18:24:18.076Z,3.33
2022-10-06T18:29:29.308Z,3.53
2022-10-06T18:39:46.230Z,3.47
2022-10-06T18:44:55.001Z,3.30
2022-10-06T18:50:03.661Z,3.30
2022-10-06T18:55:10.839Z,3.53
2022-10-06T19:00:18.338Z,3.43
2022-10-06T19:05:25.613Z,3.30
2022-10-06T19:10:34.094Z,3.70
2022-10-06T19:15:42.107Z,3.53
2022-10-06T19:20:52.182Z,3.10
2022-10-06T19:26:00.926Z,3.27
2022-10-06T19:31:12.541Z,3.67
2022-10-06T19:36:19.958Z,3.63
2022-10-06T19:41:28.815Z,3.10
2022-10-06T19:46:37.929Z,3.57
2022-10-06T19:51:46.274Z,3.47
2022-10-06T19:56:53.746Z,3.50
2022-10-06T20:02:01.265Z,3.17
2022-10-06T20:07:10.291Z,3.80
2022-10-06T20:12:23.623Z,3.50
2022-10-06T20:17:28.726Z,3.33
2022-10-06T20:22:35.936Z,3.97
2022-10-06T20:27:44.248Z,3.53
2022-10-06T20:32:52.655Z,3.90
2022-10-06T20:38:01.177Z,3.60
2022-10-06T20:43:09.141Z,3.53
2022-10-06T20:48:16.390Z,3.70
2022-10-06T20:53:26.385Z,3.70
2022-10-06T20:58:34.557Z,3.77
2022-10-06T21:03:44.550Z,3.50
2022-10-06T21:08:53.024Z,4.00
2022-10-06T21:14:00.108Z,3.50
2022-10-06T21:19:09.492Z,3.60
2022-10-06T21:24:16.928Z,4.17
2022-10-06T21:29:23.928Z,3.60
2022-10-06T21:34:33.559Z,3.67
2022-10-06T21:39:41.301Z,3.93
2022-10-06T21:44:48.575Z,3.90
2022-10-06T21:49:56.367Z,3.80
2022-10-06T21:55:05.458Z,3.90
2022-10-06T22:00:13.421Z,3.50
2022-10-06T22:05:20.719Z,3.73
2022-10-06T22:10:27.916Z,3.97
2022-10-06T22:15:36.813Z,3.50
2022-10-06T22:20:43.960Z,3.70
2022-10-06T22:25:54.136Z,3.80
2022-10-06T22:31:04.111Z,3.30
2022-10-06T22:36:14.468Z,3.80
2022-10-06T22:41:21.922Z,3.40
2022-10-06T22:46:32.365Z,3.63
2022-10-06T22:51:39.463Z,3.67
2022-10-06T22:56:47.444Z,3.37
2022-10-06T23:01:55.243Z,3.23
2022-10-06T23:07:02.231Z,3.50
2022-10-06T23:12:09.276Z,3.50
2022-10-06T23:17:16.305Z,3.30
2022-10-06T23:22:24.472Z,3.50
2022-10-06T23:27:31.395Z,3.20
2022-10-06T23:32:40.116Z,2.90
2022-10-06T23:37:47.352Z,3.10
2022-10-06T23:42:54.775Z,3.10
2022-10-06T23:48:01.901Z,3.63
2022-10-06T23:53:09.343Z,3.23
2022-10-06T23:58:17.353Z,3.13
